METAR Reports From Nearby Airports

 

KLUD - Decatur, Texas, USA
Distance from Wildwood: ESE 5mi, 8km
Updated: Mar 29, 2017 9:55am
Partly Cloudy
Partly Cloudy
 Wind from SSW
Wind: SSW 12 mph , 19 km/h, Gust: 22 mph , 35 km/h
Temperature: 63°F , 17°C
Dew Point: 57°F , 14°C
Humidity: 83%
Barometer: 29.69 inHg , 1005.4 hPa
Clouds: Partly Cloudy
Visibility: 10 miles , 16 km
Cloud details: Partly Cloudy 800 ft
2017/03/29 14:55 KLUD 291455Z AUTO 21010G19KT 10SM SCT008 17/14 A2969 RMK AO2 60001 T01670140
KXBP - Bridgeport, Texas, USA
Distance from Wildwood: WSW 11mi, 18km
Updated: Mar 29, 2017 9:55am
Clear
Clear
 Wind from SSW
Wind: SSW 12 mph , 19 km/h, Gust: 22 mph , 35 km/h
Temperature: 63°F , 17°C
Dew Point: 57°F , 14°C
Humidity: 83%
Barometer: 29.70 inHg , 1005.8 hPa
Clouds: Clear
Visibility: 10 miles , 16 km
2017/03/29 14:55 KXBP 291455Z AUTO 21010G19KT 10SM CLR 17/14 A2970 RMK AO2 T01700139
 
K0F2 - Bowie, Texas, USA
Distance from Wildwood: NNW 24mi, 39km
Updated: Mar 29, 2017 9:55am
Overcast
Overcast
 Wind from S
Wind: S 12 mph , 19 km/h, Gust: 16 mph , 26 km/h
Temperature: 63°F , 17°C
Dew Point: 61°F , 16°C
Humidity: 94%
Barometer: 29.68 inHg , 1005.1 hPa
Clouds: Overcast
Visibility: 10 miles , 16 km
Cloud details: Mostly Cloudy 600 ft
Overcast 1100 ft
2017/03/29 14:55 K0F2 291455Z AUTO 17010G14KT 10SM BKN006 OVC011 17/16 A2968 RMK AO2 60001 T01690158
KDTO - Denton, Texas, USA
Distance from Wildwood: E 27mi, 44km
Updated: Mar 29, 2017 10:01am
Partly Cloudy
Partly Cloudy
 Wind from S
Wind: S 17 mph , 28 km/h, Gust: 24 mph , 39 km/h
Temperature: 64°F , 18°C
Dew Point: 61°F , 16°C
Humidity: 88%
Barometer: 29.71 inHg , 1006.1 hPa
Clouds: Partly Cloudy
Visibility: 10 miles , 16 km
Cloud details: Partly Cloudy 1300 ft
2017/03/29 15:01 KDTO 291501Z 19015G21KT 10SM SCT013 18/16 A2971 RMK AO2 T01780156
 
KAFW - Ft Worth/Allianc, Texas, USA
Distance from Wildwood: SE 29mi, 46km
Updated: Mar 29, 2017 9:53am
Partly Cloudy
Partly Cloudy
 Wind from SSW
Wind: SSW 16 mph , 26 km/h, Gust: 24 mph , 39 km/h
Temperature: 64°F , 18°C
Dew Point: 59°F , 15°C
Humidity: 83%
Barometer: 29.70 inHg , 1005.8 hPa
Clouds: Partly Cloudy
Visibility: 10 miles , 16 km
Cloud details: Few Clouds 1000 ft
Partly Cloudy 25000 ft
2017/03/29 14:53 KAFW 291453Z 20014G21KT 10SM FEW010 SCT250 18/15 A2970 RMK AO2 SLP048 T01780150 53013
KFTW - Fort Worth, Texas, USA
Distance from Wildwood: SSE 34mi, 55km
Updated: Mar 29, 2017 9:53am
Clear
Clear
 Wind from SSW
Wind: SSW 13 mph , 20 km/h
Temperature: 64°F , 18°C
Dew Point: 57°F , 14°C
Humidity: 78%
Barometer: 29.71 inHg , 1006.1 hPa
Clouds: Clear
Visibility: 10 miles , 16 km
2017/03/29 14:53 KFTW 291453Z 20011KT 10SM CLR 18/14 A2971 RMK AO2 SLP054 T01830144 53014
 
KNFW - Fort Worth Nas, Texas, USA
Distance from Wildwood: SSE 36mi, 58km
Updated: Mar 29, 2017 9:52am
Few Clouds
Few Clouds
 Wind from SSW
Wind: SSW 21 mph , 33 km/h, Gust: 25 mph , 41 km/h
Temperature: 64°F , 18°C
Dew Point: 59°F , 15°C
Humidity: 83%
Barometer: 29.72 inHg , 1006.4 hPa
Clouds: Few Clouds
Visibility: 10 miles , 16 km
Cloud details: Few Clouds 15000 ft
2017/03/29 14:52 KNFW 291452Z 20018G22KT 10SM FEW150 18/15 A2972 RMK AO2 SLP050 T01830150 53015 $
KGLE - Gainesville, Texas, USA
Distance from Wildwood: NE 38mi, 61km
Updated: Mar 29, 2017 9:55am
Overcast
Overcast
 Wind from SSW
Wind: SSW 16 mph , 26 km/h, Gust: 20 mph , 31 km/h
Temperature: 61°F , 16°C
Dew Point: 57°F , 14°C
Humidity: 88%
Barometer: 29.71 inHg , 1006.1 hPa
Clouds: Overcast
Visibility: 10 miles , 16 km
Cloud details: Overcast 800 ft
2017/03/29 14:55 KGLE 291455Z AUTO 21014G17KT 10SM OVC008 16/14 A2971 RMK AO2 60001 T01570142
 
KMWL - Mineral Wells, Texas, USA
Distance from Wildwood: SW 41mi, 65km
Updated: Mar 29, 2017 9:53am
Clear
Clear
 Wind from SSW
Wind: SSW 15 mph , 24 km/h
Temperature: 63°F , 17°C
Dew Point: 55°F , 13°C
Humidity: 77%
Barometer: 29.71 inHg , 1006.1 hPa
Clouds: Clear
Visibility: 10 miles , 16 km
2017/03/29 14:53 KMWL 291453Z AUTO 20013KT 10SM CLR 17/13 A2971 RMK AO2 SLP050 T01720133 53014
KDFW - Dallas/Ft Worth, Texas, USA
Distance from Wildwood: ESE 45mi, 73km
Updated: Mar 29, 2017 9:53am
Partly Cloudy
Partly Cloudy
 Wind from S
Wind: S 18 mph , 30 km/h, Gust: 25 mph , 41 km/h
Temperature: 66°F , 19°C
Dew Point: 61°F , 16°C
Humidity: 83%
Barometer: 29.70 inHg , 1005.8 hPa
Clouds: Partly Cloudy
Visibility: 10 miles , 16 km
Cloud details: Few Clouds 200 ft
Few Clouds 3000 ft
Partly Cloudy 13000 ft
Partly Cloudy 25000 ft
2017/03/29 14:53 KDFW 291453Z 19016G22KT 10SM FEW002 FEW030 SCT130 SCT250 19/16 A2970 RMK AO2 SLP048 FU FEW002 W T01940156 53008 $